createdAt,value
2019-03-10T00:00:04.497Z,7.47
2019-03-10T00:05:00.446Z,10.03
2019-03-10T00:09:56.452Z,6.70
2019-03-10T00:14:52.138Z,9.50
2019-03-10T00:19:48.253Z,9.27
2019-03-10T00:24:44.284Z,10.67
2019-03-10T00:34:36.119Z,10.20
2019-03-10T00:39:33.685Z,7.73
2019-03-10T00:44:48.227Z,7.20
2019-03-10T00:50:00.797Z,5.60
2019-03-10T00:54:56.485Z,12.67
2019-03-10T00:59:52.601Z,7.30
2019-03-10T01:04:48.269Z,10.10
2019-03-10T01:09:44.725Z,7.87
2019-03-10T01:14:40.452Z,7.50
2019-03-10T01:19:36.611Z,9.23
2019-03-10T01:24:32.305Z,8.00
2019-03-10T01:29:28.296Z,8.60
2019-03-10T01:34:35.177Z,7.40
2019-03-10T01:39:31.593Z,7.63
2019-03-10T01:44:27.487Z,9.40
2019-03-10T01:49:23.209Z,6.20
2019-03-10T01:54:19.705Z,4.57
2019-03-10T01:59:15.528Z,8.57
2019-03-10T02:04:11.856Z,6.37
2019-03-10T02:09:07.655Z,6.83
2019-03-10T02:14:03.981Z,5.40
2019-03-10T02:18:59.865Z,4.37
2019-03-10T02:23:55.917Z,5.57
2019-03-10T02:28:51.672Z,5.73
2019-03-10T02:33:48.098Z,8.83
2019-03-10T02:38:43.772Z,5.53
2019-03-10T02:43:40.211Z,7.13
2019-03-10T02:48:35.892Z,4.57
2019-03-10T02:53:32.434Z,7.23
2019-03-10T02:58:28.134Z,7.70
2019-03-10T03:03:24.363Z,6.60
2019-03-10T03:08:20.057Z,4.93
2019-03-10T03:13:15.935Z,9.07
2019-03-10T03:18:11.627Z,5.33
2019-03-10T03:23:08.101Z,6.70
2019-03-10T03:28:04.040Z,7.53
2019-03-10T03:33:00.206Z,4.93
2019-03-10T03:37:55.960Z,5.90
2019-03-10T03:42:51.811Z,6.90
2019-03-10T03:47:48.269Z,6.67
2019-03-10T03:52:44.384Z,8.13
2019-03-10T03:57:40.043Z,10.17
2019-03-10T04:02:37.851Z,9.30
2019-03-10T04:07:33.518Z,9.27
2019-03-10T04:12:29.543Z,7.37
2019-03-10T04:17:25.420Z,4.47
2019-03-10T04:22:21.281Z,5.30
2019-03-10T04:27:16.988Z,3.83
2019-03-10T04:32:12.762Z,3.60
2019-03-10T04:37:08.425Z,6.37
2019-03-10T04:42:04.317Z,3.90
2019-03-10T04:47:00.929Z,3.67
2019-03-10T04:51:57.053Z,3.23
2019-03-10T04:56:54.647Z,3.83
2019-03-10T05:01:50.533Z,1.70
2019-03-10T05:06:46.217Z,3.93
2019-03-10T05:11:42.284Z,5.13
2019-03-10T05:16:37.954Z,2.33
2019-03-10T05:21:33.978Z,4.47
2019-03-10T05:26:29.659Z,3.37
2019-03-10T05:31:25.741Z,5.30
2019-03-10T05:36:21.418Z,2.83
2019-03-10T05:41:17.411Z,5.10
2019-03-10T05:46:13.106Z,3.60
2019-03-10T05:51:10.389Z,4.97
2019-03-10T05:56:06.072Z,2.90
2019-03-10T06:01:02.105Z,5.53
2019-03-10T06:05:57.786Z,4.87
2019-03-10T06:10:53.649Z,2.33
2019-03-10T06:15:49.328Z,3.43
2019-03-10T06:20:45.314Z,3.57
2019-03-10T06:25:41.078Z,4.47
2019-03-10T06:30:36.931Z,3.30
2019-03-10T06:35:32.634Z,5.63
2019-03-10T06:40:32.341Z,4.00
2019-03-10T06:45:26.269Z,4.53
2019-03-10T06:50:22.353Z,4.93
2019-03-10T06:55:18.041Z,3.73
2019-03-10T07:00:14.157Z,4.73
2019-03-10T07:05:10.427Z,4.90
2019-03-10T07:10:08.331Z,6.33
2019-03-10T07:15:05.331Z,3.43
2019-03-10T07:20:01.188Z,5.50
2019-03-10T07:24:56.868Z,3.67
2019-03-10T07:29:54.663Z,5.67
2019-03-10T07:34:58.041Z,5.23
2019-03-10T07:39:55.638Z,4.20
2019-03-10T07:44:53.405Z,2.33
2019-03-10T07:49:53.881Z,3.57
2019-03-10T07:55:01.248Z,4.90
2019-03-10T08:00:01.950Z,2.80
2019-03-10T08:05:15.990Z,1.90
2019-03-10T08:10:25.814Z,2.63
2019-03-10T08:15:23.485Z,2.83
2019-03-10T08:20:36.293Z,2.80
2019-03-10T08:25:33.947Z,2.23
2019-03-10T08:30:41.067Z,1.70
2019-03-10T08:35:55.201Z,3.67
2019-03-10T08:41:07.765Z,1.77
2019-03-10T08:46:05.331Z,2.90
2019-03-10T08:51:08.780Z,2.83
2019-03-10T08:56:07.005Z,2.57
2019-03-10T09:01:04.882Z,1.70
2019-03-10T09:06:08.427Z,3.33
2019-03-10T09:11:06.089Z,1.93
2019-03-10T09:16:18.606Z,4.60
2019-03-10T09:21:25.293Z,4.30
2019-03-10T09:26:26.646Z,3.50
2019-03-10T09:31:33.183Z,2.57
2019-03-10T09:36:30.760Z,3.57
2019-03-10T09:41:37.627Z,3.00
2019-03-10T09:46:35.203Z,2.03
2019-03-10T09:51:49.727Z,1.70
2019-03-10T09:57:04.157Z,3.47
2019-03-10T10:02:01.718Z,3.30
2019-03-10T10:07:16.051Z,1.60
2019-03-10T10:12:25.759Z,1.20
2019-03-10T10:17:23.617Z,1.73
2019-03-10T10:22:39.379Z,0.97
2019-03-10T10:27:55.007Z,1.17
2019-03-10T10:33:09.304Z,0.80
2019-03-10T10:38:17.786Z,1.33
2019-03-10T10:43:15.839Z,0.73
2019-03-10T10:48:28.939Z,0.60
2019-03-10T10:53:32.211Z,0.70
2019-03-10T10:58:30.328Z,0.50
2019-03-10T11:03:44.689Z,0.57
2019-03-10T11:09:02.757Z,0.57
2019-03-10T11:14:17.473Z,1.17
2019-03-10T11:24:32.199Z,0.47
2019-03-10T11:29:38.753Z,0.70
2019-03-10T11:34:54.436Z,0.23
2019-03-10T11:40:04.275Z,1.00
2019-03-10T11:45:04.815Z,1.40
2019-03-10T11:50:05.101Z,0.60
2019-03-10T11:55:05.711Z,0.60
2019-03-10T12:00:05.041Z,0.50
2019-03-10T12:05:08.701Z,1.00
2019-03-10T12:10:06.519Z,0.27
2019-03-10T12:15:02.607Z,1.70
2019-03-10T12:19:58.390Z,0.30
2019-03-10T12:24:54.269Z,0.67
2019-03-10T12:29:49.947Z,0.67
2019-03-10T12:34:48.946Z,0.60
2019-03-10T12:39:45.083Z,1.00
2019-03-10T12:44:41.211Z,0.43
2019-03-10T12:49:36.909Z,0.93
2019-03-10T12:54:33.155Z,0.67
2019-03-10T12:59:28.854Z,0.80
2019-03-10T13:04:25.133Z,0.47
2019-03-10T13:09:20.816Z,0.40
2019-03-10T13:14:18.223Z,0.40
2019-03-10T13:19:13.894Z,0.20
2019-03-10T13:24:09.926Z,0.87
2019-03-10T13:29:05.874Z,4.40
2019-03-10T13:34:02.082Z,0.50
2019-03-10T13:38:57.754Z,1.00
2019-03-10T13:43:53.563Z,1.33
2019-03-10T13:48:49.577Z,0.73
2019-03-10T13:53:45.305Z,0.33
2019-03-10T13:58:40.975Z,0.80
2019-03-10T14:03:37.017Z,0.30
2019-03-10T14:08:32.680Z,0.70
2019-03-10T14:13:28.721Z,0.87
2019-03-10T14:18:24.496Z,2.27
2019-03-10T14:23:20.513Z,1.10
2019-03-10T14:28:16.466Z,1.10
2019-03-10T14:33:12.585Z,1.40
2019-03-10T14:38:08.511Z,1.90
2019-03-10T14:43:04.416Z,3.63
2019-03-10T14:48:00.086Z,2.50
2019-03-10T14:52:56.088Z,3.13
2019-03-10T14:57:51.763Z,4.17
2019-03-10T15:02:47.638Z,2.30
2019-03-10T15:07:44.339Z,1.93
2019-03-10T15:12:40.343Z,2.83
2019-03-10T15:17:36.037Z,2.97
2019-03-10T15:22:32.030Z,2.47
2019-03-10T15:27:27.719Z,4.00
2019-03-10T15:32:23.863Z,3.53
2019-03-10T15:37:19.621Z,4.70
2019-03-10T15:42:15.567Z,5.13
2019-03-10T15:47:11.528Z,7.03
2019-03-10T15:52:07.603Z,3.30
2019-03-10T15:57:03.367Z,3.97
2019-03-10T16:01:59.494Z,6.90
2019-03-10T16:06:55.175Z,4.57
2019-03-10T16:11:51.624Z,4.20
2019-03-10T16:16:47.410Z,4.37
2019-03-10T16:21:43.471Z,7.37
2019-03-10T16:26:39.257Z,6.03
2019-03-10T16:31:35.127Z,6.10
2019-03-10T16:36:30.806Z,7.37
2019-03-10T16:41:26.535Z,5.37
2019-03-10T16:46:22.389Z,6.27
2019-03-10T16:51:18.071Z,7.73
2019-03-10T16:56:13.935Z,6.50
2019-03-10T17:01:09.737Z,9.13
2019-03-10T17:06:05.871Z,9.73
2019-03-10T17:11:01.555Z,6.70
2019-03-10T17:15:57.481Z,6.30
2019-03-10T17:20:54.301Z,7.60
2019-03-10T17:25:49.990Z,7.10
2019-03-10T17:30:45.983Z,9.57
2019-03-10T17:35:41.763Z,4.20
2019-03-10T17:40:38.003Z,5.90
2019-03-10T17:45:33.691Z,4.77
2019-03-10T17:50:29.931Z,10.40
2019-03-10T17:55:25.956Z,6.53
2019-03-10T18:00:23.694Z,4.63
2019-03-10T18:05:19.394Z,6.37
2019-03-10T18:10:15.929Z,4.80
2019-03-10T18:15:12.215Z,6.57
2019-03-10T18:20:15.994Z,4.57
2019-03-10T18:25:12.652Z,5.47
2019-03-10T18:30:16.218Z,6.40
2019-03-10T18:35:12.023Z,6.73
2019-03-10T18:40:09.883Z,3.97
2019-03-10T18:45:07.274Z,6.27
2019-03-10T18:50:04.560Z,5.03
2019-03-10T18:55:00.402Z,4.73
2019-03-10T18:59:56.336Z,9.67
2019-03-10T19:04:52.020Z,7.33
2019-03-10T19:09:47.926Z,4.60
2019-03-10T19:14:43.634Z,5.50
2019-03-10T19:19:39.542Z,3.50
2019-03-10T19:24:35.394Z,7.37
2019-03-10T19:29:31.140Z,6.03
2019-03-10T19:34:27.088Z,3.77
2019-03-10T19:39:23.258Z,4.03
2019-03-10T19:44:21.054Z,3.40
2019-03-10T19:49:16.887Z,3.47
2019-03-10T19:54:12.673Z,5.17
2019-03-10T19:59:08.553Z,7.70
2019-03-10T20:04:04.237Z,5.37
2019-03-10T20:09:01.439Z,3.07
2019-03-10T20:13:57.883Z,3.87
2019-03-10T20:18:54.185Z,4.00
2019-03-10T20:23:49.859Z,2.83
2019-03-10T20:28:46.154Z,2.00
2019-03-10T20:33:41.865Z,2.60
2019-03-10T20:38:37.817Z,4.53
2019-03-10T20:43:33.497Z,0.83
2019-03-10T20:48:29.372Z,0.90
2019-03-10T20:53:25.099Z,0.77
2019-03-10T20:58:21.108Z,1.33
2019-03-10T21:03:16.986Z,1.90
2019-03-10T21:08:13.016Z,0.80
2019-03-10T21:13:08.800Z,1.40
2019-03-10T21:18:04.673Z,1.23
2019-03-10T21:23:01.107Z,1.17
2019-03-10T21:27:56.972Z,2.67
2019-03-10T21:32:52.742Z,1.50
2019-03-10T21:37:48.520Z,0.83
2019-03-10T21:42:44.389Z,5.00
2019-03-10T21:47:40.075Z,1.40
2019-03-10T21:52:36.047Z,2.37
2019-03-10T21:57:31.727Z,2.43
2019-03-10T22:02:27.711Z,2.67
2019-03-10T22:07:23.393Z,2.20
2019-03-10T22:12:19.257Z,1.70
2019-03-10T22:17:15.105Z,1.40
2019-03-10T22:22:10.993Z,1.97
2019-03-10T22:27:07.267Z,2.10
2019-03-10T22:32:03.490Z,0.77
2019-03-10T22:36:59.153Z,0.77
2019-03-10T22:41:55.031Z,2.50
2019-03-10T22:46:50.715Z,2.20
2019-03-10T22:51:46.654Z,3.20
2019-03-10T22:56:42.354Z,2.20
2019-03-10T23:01:38.341Z,0.93
2019-03-10T23:06:34.029Z,0.73
2019-03-10T23:11:30.259Z,1.80
2019-03-10T23:16:26.192Z,2.20
2019-03-10T23:21:22.069Z,4.30
2019-03-10T23:26:17.739Z,2.77
2019-03-10T23:31:14.265Z,2.30
2019-03-10T23:36:10.204Z,2.03
2019-03-10T23:41:06.208Z,2.17
2019-03-10T23:46:01.896Z,1.53
2019-03-10T23:50:58.079Z,3.00
2019-03-10T23:55:53.799Z,3.03
